Time;durP1;ratioP1;P1;durP2;ratioP2;P2;SDS_P1;SDS_P2;PMS_P1;PMS_P2;Temp;Humidity;BMP_temperature;BMP_pressure;BME280_temperature;BME280_humidity;BME280_pressure;Samples;Min_cycle;Max_cycle;Signal;HPM_P1;HPM_P2
2024/04/06 00:01:21;;;;;;;1.73;1.20;;;;;;;14.70;100.00;98307.84;6106986;19;20062;-71
2024/04/06 00:03:21;;;;;;;1.53;1.17;;;;;;;14.70;100.00;98318.19;6107953;19;20703;-71
2024/04/06 00:05:22;;;;;;;2.55;1.35;;;;;;;14.68;100.00;98315.81;6107638;19;20338;-71
2024/04/06 00:07:23;;;;;;;2.85;1.17;;;;;;;14.70;100.00;98324.53;6106877;19;20013;-71
2024/04/06 00:09:23;;;;;;;3.00;1.42;;;;;;;14.80;100.00;98318.09;6104231;19;19998;-71
2024/04/06 00:11:24;;;;;;;1.98;1.20;;;;;;;14.76;100.00;98316.56;6107026;19;20329;-71
2024/04/06 00:13:24;;;;;;;1.58;1.10;;;;;;;14.74;100.00;98318.97;6107256;19;20050;-71
2024/04/06 00:15:24;;;;;;;1.48;1.10;;;;;;;14.72;100.00;98313.78;6107643;19;20011;-71
2024/04/06 00:17:26;;;;;;;2.75;1.30;;;;;;;14.73;100.00;98331.28;6107056;19;20342;-71
2024/04/06 00:19:26;;;;;;;3.63;1.90;;;;;;;14.75;100.00;98315.75;6106385;19;20014;-71
2024/04/06 00:21:26;;;;;;;2.25;1.10;;;;;;;14.75;100.00;98328.91;6106754;19;20490;-71
2024/04/06 00:23:28;;;;;;;1.85;1.20;;;;;;;14.78;100.00;98314.94;6107119;19;20462;-71
2024/04/06 00:25:28;;;;;;;2.30;1.20;;;;;;;14.78;100.00;98320.50;6107099;19;20007;-71
2024/04/06 00:27:28;;;;;;;2.10;1.10;;;;;;;14.85;100.00;98328.81;6106287;19;20010;-71
2024/04/06 00:29:29;;;;;;;2.25;1.20;;;;;;;14.87;100.00;98334.75;6106043;19;20915;-71
2024/04/06 00:31:29;;;;;;;3.78;1.83;;;;;;;14.86;100.00;98324.03;6108039;19;20004;-71
2024/04/06 00:33:29;;;;;;;2.70;1.23;;;;;;;14.85;100.00;98326.00;6107033;19;20101;-71
2024/04/06 00:35:29;;;;;;;2.67;1.35;;;;;;;14.84;100.00;98327.22;6106930;19;20013;-71
2024/04/06 00:37:30;;;;;;;1.52;1.13;;;;;;;14.83;100.00;98331.22;6106159;19;20056;-70
2024/04/06 00:39:30;;;;;;;1.50;1.20;;;;;;;14.78;100.00;98334.44;6106179;19;20007;-70
2024/04/06 00:41:30;;;;;;;2.72;1.13;;;;;;;14.74;100.00;98338.44;6107561;19;20090;-71
2024/04/06 00:43:32;;;;;;;3.67;1.55;;;;;;;14.72;100.00;98340.84;6106197;19;20343;-70
2024/04/06 00:45:32;;;;;;;3.40;1.33;;;;;;;14.72;100.00;98346.41;6113670;19;20010;-71
2024/04/06 00:47:33;;;;;;;3.08;1.38;;;;;;;14.71;100.00;98340.03;6111821;19;20270;-71
2024/04/06 00:49:34;;;;;;;2.50;1.27;;;;;;;14.76;100.00;98336.03;6112013;19;20051;-71
2024/04/06 00:51:34;;;;;;;3.63;1.38;;;;;;;14.74;100.00;98324.53;6112381;19;20018;-71
2024/04/06 00:53:35;;;;;;;2.38;1.08;;;;;;;14.79;100.00;98326.84;6113158;19;20006;-71
2024/04/06 00:55:35;;;;;;;1.60;1.30;;;;;;;14.79;100.00;98326.84;6112780;19;20002;-71
2024/04/06 00:57:36;;;;;;;2.28;1.05;;;;;;;14.75;100.00;98317.75;6113986;19;20454;-71
2024/04/06 00:59:37;;;;;;;5.00;1.40;;;;;;;14.80;100.00;98331.22;6111823;19;20014;-71
2024/04/06 01:01:38;;;;;;;3.85;1.55;;;;;;;14.78;100.00;98331.63;6112836;19;20006;-71
2024/04/06 01:03:38;;;;;;;2.35;1.08;;;;;;;14.74;100.00;98327.31;6112322;19;20007;-71
2024/04/06 01:05:38;;;;;;;2.42;1.08;;;;;;;14.72;100.00;98329.69;6112384;19;20070;-71
2024/04/06 01:07:42;;;;;;;2.53;2.13;;;;;;;14.67;100.00;98339.28;6111796;19;20007;-71
2024/04/06 01:09:42;;;;;;;2.00;1.27;;;;;;;14.64;100.00;98328.16;6111905;19;20327;-71
2024/04/06 01:11:43;;;;;;;2.60;1.10;;;;;;;14.63;100.00;98337.72;6111938;19;20010;-71
2024/04/06 01:13:43;;;;;;;2.97;1.10;;;;;;;14.60;100.00;98336.56;6112261;19;20043;-71
2024/04/06 01:15:44;;;;;;;4.22;1.33;;;;;;;14.61;100.00;98340.91;6101182;19;20002;-71
2024/04/06 01:17:44;;;;;;;2.40;1.20;;;;;;;14.57;100.00;98335.38;6110902;19;20005;-71
2024/04/06 01:19:45;;;;;;;2.88;1.60;;;;;;;14.59;100.00;98344.13;6111427;19;20471;-71
2024/04/06 01:21:45;;;;;;;1.60;1.20;;;;;;;14.53;100.00;98331.81;6111299;19;20021;-71
2024/04/06 01:23:49;;;;;;;1.63;1.08;;;;;;;14.50;100.00;98338.22;6110654;19;20519;-71
2024/04/06 01:25:49;;;;;;;1.90;1.33;;;;;;;14.46;100.00;98334.66;6111581;19;20006;-71
2024/04/06 01:27:49;;;;;;;2.63;1.50;;;;;;;14.43;100.00;98332.66;6110914;19;20010;-71
2024/04/06 01:29:50;;;;;;;5.15;1.85;;;;;;;14.45;100.00;98341.41;6111538;19;20045;-71
2024/04/06 01:31:51;;;;;;;2.40;1.20;;;;;;;14.39;100.00;98331.88;6111605;19;20058;-71
2024/04/06 01:33:51;;;;;;;2.08;1.20;;;;;;;14.39;100.00;98333.88;6111742;19;20806;-71
2024/04/06 01:35:51;;;;;;;2.92;1.10;;;;;;;14.35;100.00;98333.91;6108800;19;20007;-71
2024/04/06 01:37:52;;;;;;;1.77;1.20;;;;;;;14.29;100.00;98333.53;6111535;19;20011;-71
2024/04/06 01:39:52;;;;;;;1.23;1.05;;;;;;;14.27;100.00;98335.13;6110066;19;20009;-71
2024/04/06 01:41:52;;;;;;;1.58;0.93;;;;;;;14.24;100.00;98338.75;6111472;19;20022;-70
2024/04/06 01:43:53;;;;;;;2.45;1.67;;;;;;;14.20;100.00;98344.31;6110829;19;20024;-70
2024/04/06 01:45:53;;;;;;;1.42;1.02;;;;;;;14.18;100.00;98343.94;6111325;19;20796;-71
2024/04/06 01:47:53;;;;;;;1.90;1.17;;;;;;;14.17;100.00;98345.13;6111139;19;20043;-71
2024/04/06 01:49:54;;;;;;;1.90;1.27;;;;;;;14.15;100.00;98352.28;6109777;19;20050;-71
2024/04/06 01:51:54;;;;;;;2.83;1.30;;;;;;;14.12;100.00;98345.53;6110657;19;20353;-71
2024/04/06 01:53:55;;;;;;;2.28;1.10;;;;;;;14.09;100.00;98342.78;6110781;19;20022;-71
2024/04/06 01:55:55;;;;;;;2.40;0.93;;;;;;;14.06;100.00;98342.38;6110326;19;20335;-71
2024/04/06 01:57:55;;;;;;;1.25;0.95;;;;;;;14.03;100.00;98339.63;6110528;19;20010;-71
2024/04/06 01:59:57;;;;;;;1.65;1.08;;;;;;;14.03;100.00;98351.53;6111244;19;20338;-70
2024/04/06 02:01:57;;;;;;;2.80;1.20;;;;;;;14.02;100.00;98351.94;6110568;19;20455;-71
2024/04/06 02:03:57;;;;;;;1.23;1.00;;;;;;;13.99;100.00;98344.44;6110174;19;20076;-71
2024/04/06 02:05:58;;;;;;;2.60;1.20;;;;;;;13.99;100.00;98344.44;6111042;19;20016;-71
2024/04/06 02:07:58;;;;;;;1.20;1.10;;;;;;;13.98;100.00;98349.19;6110058;19;20007;-71
2024/04/06 02:09:59;;;;;;;1.35;1.17;;;;;;;13.95;100.00;98344.41;6109203;19;20010;-71
2024/04/06 02:11:59;;;;;;;1.50;1.20;;;;;;;13.97;100.00;98355.94;6111085;19;19999;-71
2024/04/06 02:13:59;;;;;;;1.40;1.10;;;;;;;13.94;100.00;98347.63;6110344;19;20011;-71
2024/04/06 02:16:00;;;;;;;2.90;1.30;;;;;;;13.92;100.00;98350.81;6107275;19;20806;-71
2024/04/06 02:18:00;;;;;;;3.15;1.70;;;;;;;13.91;100.00;98357.56;6100576;19;20042;-71
2024/04/06 02:20:01;;;;;;;2.05;1.58;;;;;;;13.91;100.00;98354.00;6101929;19;20010;-71
2024/04/06 02:22:01;;;;;;;4.57;1.25;;;;;;;13.91;100.00;98351.22;6101112;19;20042;-71
2024/04/06 02:24:02;;;;;;;1.50;1.15;;;;;;;13.91;100.00;98343.66;6101899;19;20033;-71
2024/04/06 02:26:02;;;;;;;1.90;1.30;;;;;;;13.90;100.00;98349.59;6102563;19;20027;-71
2024/04/06 02:28:03;;;;;;;1.48;1.00;;;;;;;13.89;100.00;98348.81;6100954;19;20240;-71
2024/04/06 02:30:06;;;;;;;1.42;1.00;;;;;;;13.90;100.00;98355.97;6101705;19;20002;-71
2024/04/06 02:32:07;;;;;;;1.50;1.20;;;;;;;13.89;100.00;98348.81;6102191;19;20014;-70
2024/04/06 02:34:08;;;;;;;1.50;1.20;;;;;;;13.89;100.00;98350.81;6101215;19;20510;-71
2024/04/06 02:36:08;;;;;;;2.63;1.98;;;;;;;13.90;100.00;98366.28;6102366;19;20006;-71
2024/04/06 02:38:09;;;;;;;2.15;1.08;;;;;;;13.88;100.00;98357.56;6100430;19;20010;-71
2024/04/06 02:40:10;;;;;;;3.45;1.13;;;;;;;13.88;100.00;98369.47;6102142;19;20016;-71
2024/04/06 02:42:10;;;;;;;2.47;1.30;;;;;;;13.88;100.00;98360.34;6101307;19;20026;-71
2024/04/06 02:44:10;;;;;;;1.80;1.20;;;;;;;13.90;100.00;98358.75;6101598;19;20038;-71
2024/04/06 02:46:11;;;;;;;4.97;1.50;;;;;;;13.88;100.00;98361.13;6101470;19;20003;-71
2024/04/06 02:48:11;;;;;;;2.05;1.30;;;;;;;13.87;100.00;98362.34;6100579;19;20117;-71
2024/04/06 02:50:11;;;;;;;1.55;1.00;;;;;;;13.86;100.00;98357.19;6100617;19;19999;-71
2024/04/06 02:52:12;;;;;;;2.47;1.35;;;;;;;13.83;100.00;98353.22;6101998;19;19999;-71
2024/04/06 02:54:12;;;;;;;2.47;1.30;;;;;;;13.82;100.00;98362.75;6101435;19;21047;-71
2024/04/06 02:56:12;;;;;;;1.75;1.30;;;;;;;13.76;100.00;98353.25;6100891;19;20015;-71
2024/04/06 02:58:13;;;;;;;1.65;1.20;;;;;;;13.74;100.00;98355.66;6100187;19;20003;-71
2024/04/06 03:00:13;;;;;;;2.40;1.00;;;;;;;13.72;100.00;98353.25;6102990;19;20283;-71
2024/04/06 03:02:14;;;;;;;1.77;1.00;;;;;;;13.74;100.00;98353.66;6100179;19;20002;-71
2024/04/06 03:04:14;;;;;;;3.03;1.20;;;;;;;13.73;100.00;98351.25;6100644;19;20857;-71
2024/04/06 03:06:14;;;;;;;2.22;1.20;;;;;;;13.69;100.00;98358.81;6098747;19;20003;-71
2024/04/06 03:08:15;;;;;;;3.03;1.15;;;;;;;13.68;100.00;98366.38;6099927;19;20331;-71
2024/04/06 03:10:15;;;;;;;2.80;1.17;;;;;;;13.68;100.00;98363.59;6100807;19;20015;-71
2024/04/06 03:12:16;;;;;;;3.95;1.20;;;;;;;13.69;100.00;98362.41;6101214;19;19998;-71
2024/04/06 03:14:16;;;;;;;2.45;1.40;;;;;;;13.69;100.00;98362.41;6100211;19;20006;-71
2024/04/06 03:16:16;;;;;;;1.95;1.30;;;;;;;13.73;100.00;98367.94;6102222;19;20010;-71
2024/04/06 03:18:17;;;;;;;2.25;1.23;;;;;;;13.74;100.00;98363.97;6108153;19;20462;-71
2024/04/06 03:20:17;;;;;;;1.85;1.30;;;;;;;13.73;100.00;98363.16;6109813;19;20350;-71
2024/04/06 03:22:17;;;;;;;4.10;1.33;;;;;;;13.73;100.00;98365.16;6109852;19;20002;-71
2024/04/06 03:24:18;;;;;;;1.27;1.00;;;;;;;13.73;100.00;98360.38;6107573;19;20050;-71
2024/04/06 03:26:18;;;;;;;1.42;1.05;;;;;;;13.71;100.00;98357.22;6108492;19;20015;-71
2024/04/06 03:28:19;;;;;;;1.70;0.93;;;;;;;13.72;100.00;98367.13;6107632;19;20026;-71
2024/04/06 03:30:19;;;;;;;3.38;1.35;;;;;;;13.78;100.00;98359.19;6107653;19;20011;-70
2024/04/06 03:32:20;;;;;;;1.60;1.17;;;;;;;13.80;100.00;98367.13;6106088;19;20002;-71
2024/04/06 03:34:20;;;;;;;3.03;1.20;;;;;;;13.82;100.00;98365.56;6107848;19;20006;-71
2024/04/06 03:36:21;;;;;;;2.10;1.00;;;;;;;13.84;100.00;98359.56;6106793;19;20530;-71
2024/04/06 03:38:21;;;;;;;2.28;1.02;;;;;;;13.86;100.00;98360.75;6106959;19;20014;-71
2024/04/06 03:40:21;;;;;;;2.75;1.23;;;;;;;13.93;100.00;98357.94;6108974;19;20078;-71
2024/04/06 03:42:25;;;;;;;2.22;1.33;;;;;;;13.93;100.00;98349.59;6106665;19;20009;-71
2024/04/06 03:44:25;;;;;;;3.25;1.30;;;;;;;13.96;100.00;98348.78;6107668;19;20025;-71
2024/04/06 03:46:28;;;;;;;1.85;1.10;;;;;;;13.96;100.00;98351.56;6107593;19;20194;-71
2024/04/06 03:48:30;;;;;;;2.15;1.20;;;;;;;13.97;100.00;98358.72;6106694;19;20024;-70
2024/04/06 03:50:30;;;;;;;1.50;1.10;;;;;;;13.95;100.00;98361.09;6107669;19;20015;-71
2024/04/06 03:52:31;;;;;;;3.25;1.08;;;;;;;13.94;100.00;98367.09;6108053;19;20017;-71
2024/04/06 03:54:31;;;;;;;1.73;1.20;;;;;;;13.94;100.00;98365.09;6107166;19;20003;-71
2024/04/06 03:56:32;;;;;;;4.05;1.30;;;;;;;13.91;100.00;98370.69;6107610;19;20006;-71
2024/04/06 03:58:32;;;;;;;1.42;1.00;;;;;;;13.92;100.00;98370.28;6105749;19;20466;-71
2024/04/06 04:00:32;;;;;;;1.33;1.10;;;;;;;13.93;100.00;98374.63;6105677;19;20424;-71
2024/04/06 04:02:32;;;;;;;1.45;1.10;;;;;;;13.95;100.00;98371.44;6108855;19;20217;-71
2024/04/06 04:04:33;;;;;;;1.90;1.20;;;;;;;13.97;100.00;98380.16;6107340;19;20013;-71
2024/04/06 04:06:33;;;;;;;1.45;1.10;;;;;;;13.95;100.00;98377.81;6107573;19;20452;-70
2024/04/06 04:08:34;;;;;;;1.45;1.00;;;;;;;14.02;100.00;98379.78;6105777;19;19999;-71
2024/04/06 04:10:36;;;;;;;1.98;1.30;;;;;;;14.08;100.00;98385.72;6107064;19;20010;-71
2024/04/06 04:12:36;;;;;;;1.98;1.30;;;;;;;14.08;100.00;98392.06;6106688;19;20081;-71
2024/04/06 04:14:37;;;;;;;2.30;1.00;;;;;;;14.09;100.00;98393.66;6106962;19;20015;-71
2024/04/06 04:16:37;;;;;;;2.55;1.02;;;;;;;14.10;100.00;98388.88;6106958;19;20074;-71
2024/04/06 04:18:37;;;;;;;1.63;1.20;;;;;;;14.11;100.00;98384.91;6105279;19;20011;-71
2024/04/06 04:20:38;;;;;;;1.30;1.20;;;;;;;14.10;100.00;98386.09;6106361;19;20007;-71
2024/04/06 04:22:38;;;;;;;3.97;1.10;;;;;;;14.06;100.00;98384.09;6106669;19;20010;-71
2024/04/06 04:24:38;;;;;;;2.50;1.00;;;;;;;14.08;100.00;98397.63;6106817;19;20020;-71
2024/04/06 04:26:39;;;;;;;2.35;1.20;;;;;;;14.08;100.00;98394.06;6107163;19;20052;-71
2024/04/06 04:28:39;;;;;;;1.17;0.93;;;;;;;14.08;100.00;98394.84;6104787;19;20024;-71
2024/04/06 04:30:39;;;;;;;1.08;0.90;;;;;;;14.09;100.00;98396.44;6107106;19;20006;-70
2024/04/06 04:32:40;;;;;;;3.55;1.10;;;;;;;14.08;100.00;98400.41;6106901;19;20006;-71
2024/04/06 04:34:40;;;;;;;1.92;1.30;;;;;;;14.08;100.00;98403.19;6106600;19;20010;-71
2024/04/06 04:36:40;;;;;;;1.50;1.00;;;;;;;14.09;100.00;98404.00;6106991;19;20006;-71
2024/04/06 04:38:41;;;;;;;2.30;1.13;;;;;;;14.08;100.00;98405.19;6104892;19;20046;-71
2024/04/06 04:40:41;;;;;;;3.08;1.30;;;;;;;14.09;100.00;98407.56;6106866;19;20006;-71
2024/04/06 04:42:41;;;;;;;4.00;1.30;;;;;;;14.08;100.00;98400.41;6106950;19;20455;-71
2024/04/06 04:44:41;;;;;;;1.58;1.10;;;;;;;14.08;100.00;98411.53;6104820;19;19999;-71
2024/04/06 04:46:42;;;;;;;1.90;1.13;;;;;;;14.11;100.00;98416.28;6105651;19;20010;-70
2024/04/06 04:48:59;;;;;;;2.22;1.58;;;;;;;14.09;100.00;98418.69;6104973;19;20358;-71
2024/04/06 04:50:59;;;;;;;2.83;1.40;;;;;;;14.10;100.00;98419.47;6107542;19;20006;-71
2024/04/06 04:53:00;;;;;;;2.15;1.13;;;;;;;14.10;100.00;98428.63;6106037;19;20011;-71
2024/04/06 04:55:00;;;;;;;2.75;1.20;;;;;;;14.10;100.00;98425.03;6107794;19;20563;-71
2024/04/06 04:57:00;;;;;;;3.40;1.25;;;;;;;14.09;100.00;98410.34;6105747;19;20007;-70
2024/04/06 04:59:00;;;;;;;2.17;1.42;;;;;;;14.09;100.00;98409.56;6105922;19;20010;-71
2024/04/06 05:01:01;;;;;;;1.80;1.15;;;;;;;14.10;100.00;98417.50;6106997;19;20388;-71
2024/04/06 05:03:01;;;;;;;1.98;1.10;;;;;;;14.09;100.00;98421.47;6107303;19;20070;-71
2024/04/06 05:05:03;;;;;;;2.03;1.10;;;;;;;14.05;100.00;98415.91;6106616;19;20027;-71
2024/04/06 05:07:04;;;;;;;1.90;1.30;;;;;;;14.03;100.00;98421.09;6105709;19;20003;-71
2024/04/06 05:09:06;;;;;;;1.85;1.20;;;;;;;14.05;100.00;98415.13;6104895;19;20540;-71
2024/04/06 05:11:07;;;;;;;1.98;1.10;;;;;;;14.03;100.00;98415.53;6105878;19;20026;-71
2024/04/06 05:13:07;;;;;;;2.28;1.35;;;;;;;14.01;100.00;98406.00;6105932;19;20066;-71
2024/04/06 05:15:08;;;;;;;1.33;1.20;;;;;;;14.02;100.00;98413.94;6107618;19;20126;-71
2024/04/06 05:17:08;;;;;;;1.77;1.00;;;;;;;14.02;100.00;98413.94;6105318;19;19999;-71
2024/04/06 05:19:09;;;;;;;2.53;1.55;;;;;;;14.03;100.00;98411.94;6105150;19;20011;-71
2024/04/06 05:21:09;;;;;;;2.30;1.10;;;;;;;14.02;100.00;98411.16;6105238;19;20524;-70
2024/04/06 05:23:09;;;;;;;1.80;1.40;;;;;;;14.01;100.00;98403.22;6106937;19;20007;-71
2024/04/06 05:25:10;;;;;;;1.83;1.33;;;;;;;14.03;100.00;98406.38;6105691;19;20002;-71
2024/04/06 05:27:10;;;;;;;4.65;1.50;;;;;;;14.02;100.00;98402.81;6105060;19;20604;-71
2024/04/06 05:29:11;;;;;;;3.38;1.48;;;;;;;14.05;100.00;98406.78;6105778;19;20011;-71
2024/04/06 05:31:11;;;;;;;1.25;1.13;;;;;;;14.06;100.00;98411.13;6111217;19;19999;-71
2024/04/06 05:33:13;;;;;;;1.35;1.08;;;;;;;14.07;100.00;98412.75;6111765;19;20006;-71
2024/04/06 05:35:14;;;;;;;2.33;1.20;;;;;;;14.08;100.00;98419.09;6111762;19;20014;-71
2024/04/06 05:37:14;;;;;;;1.48;1.00;;;;;;;14.10;100.00;98411.13;6110036;19;20003;-71
2024/04/06 05:39:15;;;;;;;1.83;1.15;;;;;;;14.13;100.00;98413.88;6111474;19;20007;-71
2024/04/06 05:41:15;;;;;;;1.55;1.17;;;;;;;14.16;100.00;98415.09;6110827;19;20005;-71
2024/04/06 05:43:15;;;;;;;2.15;1.20;;;;;;;14.21;100.00;98428.56;6111888;19;20023;-71
2024/04/06 05:45:16;;;;;;;1.75;1.20;;;;;;;14.29;100.00;98432.91;6111608;19;20007;-70
2024/04/06 05:47:16;;;;;;;3.15;1.77;;;;;;;14.25;100.00;98424.59;6111209;19;20009;-71
2024/04/06 05:49:16;;;;;;;4.07;1.77;;;;;;;14.18;100.00;98426.59;6110478;19;20016;-71
2024/04/06 05:51:16;;;;;;;3.85;1.50;;;;;;;14.14;100.00;98420.25;6110938;19;20018;-71
2024/04/06 05:53:17;;;;;;;5.03;1.67;;;;;;;14.11;100.00;98430.19;6110639;19;20320;-71
2024/04/06 05:55:17;;;;;;;2.10;1.30;;;;;;;14.09;100.00;98429.81;6111507;19;20322;-71
2024/04/06 05:57:17;;;;;;;2.58;1.40;;;;;;;14.04;100.00;98419.88;6110267;19;20010;-71
2024/04/06 05:59:18;;;;;;;2.85;1.40;;;;;;;14.00;100.00;98419.13;6109354;19;20475;-71
2024/04/06 06:01:18;;;;;;;2.80;1.90;;;;;;;13.97;100.00;98419.91;6110758;19;20006;-71
2024/04/06 06:03:18;;;;;;;3.25;1.25;;;;;;;13.96;100.00;98418.31;6111188;19;19999;-71
2024/04/06 06:05:19;;;;;;;2.45;1.75;;;;;;;13.96;100.00;98411.97;6111453;19;20444;-71
2024/04/06 06:07:20;;;;;;;3.55;2.33;;;;;;;13.94;100.00;98408.81;6110257;19;20003;-70
2024/04/06 06:09:20;;;;;;;3.60;2.20;;;;;;;13.94;100.00;98415.16;6109877;19;20002;-70
2024/04/06 06:11:21;;;;;;;3.95;2.47;;;;;;;13.96;100.00;98415.53;6110110;19;20562;-71
2024/04/06 06:13:22;;;;;;;5.13;2.40;;;;;;;13.95;100.00;98430.66;6110730;19;20011;-71
2024/04/06 06:15:22;;;;;;;3.42;2.20;;;;;;;13.93;100.00;98410.78;6101424;19;20013;-71
2024/04/06 06:17:22;;;;;;;3.30;2.20;;;;;;;13.97;100.00;98422.69;6110055;19;20003;-71
2024/04/06 06:19:23;;;;;;;5.30;2.17;;;;;;;13.98;100.00;98420.69;6109726;19;20078;-71
2024/04/06 06:21:23;;;;;;;3.75;1.80;;;;;;;14.01;100.00;98417.13;6111066;19;20020;-71
2024/04/06 06:23:23;;;;;;;2.38;1.73;;;;;;;14.06;100.00;98417.50;6110815;19;20002;-71
2024/04/06 06:25:24;;;;;;;4.07;1.70;;;;;;;14.11;100.00;98421.06;6110326;19;20030;-70
2024/04/06 06:27:24;;;;;;;3.03;1.98;;;;;;;14.19;100.00;98417.84;6109744;19;20010;-71
2024/04/06 06:29:25;;;;;;;2.55;1.90;;;;;;;14.25;100.00;98423.81;6111233;19;20343;-71
2024/04/06 06:31:25;;;;;;;6.68;1.55;;;;;;;14.31;100.00;98424.94;6108648;19;20012;-71
2024/04/06 06:33:26;;;;;;;2.60;1.52;;;;;;;14.41;100.00;98431.69;6109167;19;20003;-71
2024/04/06 06:35:26;;;;;;;2.60;1.42;;;;;;;14.51;100.00;98433.66;6110554;19;20329;-71
2024/04/06 06:37:27;;;;;;;5.65;1.67;;;;;;;14.55;100.00;98438.00;6110147;19;20003;-71
2024/04/06 06:39:29;;;;;;;2.22;1.75;;;;;;;14.61;100.00;98438.38;6109147;19;20459;-71
2024/04/06 06:41:29;;;;;;;4.70;1.88;;;;;;;14.65;100.00;98433.59;6106720;19;20013;-71
2024/04/06 06:43:30;;;;;;;2.45;2.00;;;;;;;14.67;100.00;98428.41;6110770;19;20006;-71
2024/04/06 06:45:30;;;;;;;3.00;1.70;;;;;;;14.72;100.00;98425.16;6110355;19;20008;-71
2024/04/06 06:47:31;;;;;;;3.95;1.80;;;;;;;14.75;100.00;98412.44;6106958;19;20010;-71
2024/04/06 06:49:32;;;;;;;3.42;1.73;;;;;;;14.82;100.00;98415.97;6109733;19;20089;-71
2024/04/06 06:51:32;;;;;;;3.15;1.42;;;;;;;14.91;100.00;98409.16;6108301;19;20486;-71
2024/04/06 06:53:33;;;;;;;2.05;1.40;;;;;;;14.94;100.00;98400.75;6108432;19;20019;-71
2024/04/06 06:55:33;;;;;;;3.75;1.52;;;;;;;15.01;100.00;98397.94;6109523;19;20040;-71
2024/04/06 06:57:33;;;;;;;3.58;1.70;;;;;;;15.06;100.00;98400.28;6110039;19;20015;-71
2024/04/06 06:59:34;;;;;;;5.50;1.83;;;;;;;15.14;100.00;98398.22;6109571;19;20011;-71
2024/04/06 07:01:34;;;;;;;2.55;1.40;;;;;;;15.20;100.00;98399.38;6109660;19;20054;-71
2024/04/06 07:03:34;;;;;;;3.53;1.60;;;;;;;15.27;100.00;98410.44;6110604;19;20366;-71
2024/04/06 07:05:35;;;;;;;7.35;2.30;;;;;;;15.37;100.00;98409.56;6109106;19;20428;-71
2024/04/06 07:07:35;;;;;;;6.28;2.08;;;;;;;15.41;100.00;98403.97;6109116;19;20007;-71
2024/04/06 07:09:35;;;;;;;3.55;1.45;;;;;;;15.50;100.00;98411.84;6108495;19;20006;-71
2024/04/06 07:11:36;;;;;;;2.00;1.50;;;;;;;15.55;100.00;98414.97;6108953;19;20546;-71
2024/04/06 07:13:37;;;;;;;2.75;1.52;;;;;;;15.67;100.00;98410.94;6109062;19;20023;-71
2024/04/06 07:15:37;;;;;;;3.92;1.80;;;;;;;15.73;100.00;98403.69;6107870;19;20007;-71
2024/04/06 07:17:37;;;;;;;5.53;1.55;;;;;;;15.82;100.00;98406.78;6100969;19;20011;-71
2024/04/06 07:19:38;;;;;;;3.65;1.58;;;;;;;15.94;100.00;98413.81;6100489;19;20463;-71
2024/04/06 07:21:38;;;;;;;3.83;1.58;;;;;;;16.01;100.00;98402.59;6100875;19;20348;-71
2024/04/06 07:23:38;;;;;;;2.00;1.40;;;;;;;16.09;100.00;98406.09;6100836;19;20350;-71
2024/04/06 07:25:39;;;;;;;2.63;1.58;;;;;;;16.20;100.00;98413.13;6100984;19;20023;-71
2024/04/06 07:27:39;;;;;;;2.65;1.58;;;;;;;16.30;100.00;98419.78;6100520;19;20015;-71
2024/04/06 07:29:40;;;;;;;2.20;1.40;;;;;;;16.38;100.00;98407.31;6100360;19;20014;-71
2024/04/06 07:31:40;;;;;;;1.67;1.40;;;;;;;16.48;100.00;98409.19;6100729;19;20028;-71
2024/04/06 07:33:41;;;;;;;4.55;1.70;;;;;;;16.60;100.00;98412.63;6100436;19;20105;-71
2024/04/06 07:35:41;;;;;;;2.17;1.40;;;;;;;16.66;100.00;98413.75;6101342;19;20361;-71
2024/04/06 07:37:41;;;;;;;2.10;1.65;;;;;;;16.70;100.00;98415.28;6099871;19;19998;-71
2024/04/06 07:39:41;;;;;;;2.45;1.48;;;;;;;16.81;100.00;98410.34;6097573;19;20010;-71
2024/04/06 07:41:42;;;;;;;4.20;1.52;;;;;;;16.95;100.00;98411.34;6100202;19;20087;-71
2024/04/06 07:43:42;;;;;;;4.57;1.90;;;;;;;17.07;100.00;98422.75;6100516;19;20006;-71
2024/04/06 07:45:42;;;;;;;4.97;1.65;;;;;;;17.21;100.00;98415.31;6098518;19;20006;-71
2024/04/06 07:47:43;;;;;;;3.83;1.67;;;;;;;17.30;100.00;98410.78;6099820;19;20015;-71
2024/04/06 07:49:44;;;;;;;2.10;1.30;;;;;;;17.35;100.00;98413.09;6099880;19;20023;-71
2024/04/06 07:51:44;;;;;;;4.53;1.55;;;;;;;17.48;100.00;98415.28;6100004;19;20031;-71
2024/04/06 07:53:44;;;;;;;5.15;1.75;;;;;;;17.61;100.00;98425.44;6098314;19;20034;-71
2024/04/06 07:55:45;;;;;;;5.13;1.83;;;;;;;17.60;100.00;98411.88;6098781;19;20005;-71
2024/04/06 07:57:46;;;;;;;3.60;1.63;;;;;;;17.63;100.00;98416.63;6098208;19;20069;-71
2024/04/06 07:59:46;;;;;;;3.65;1.55;;;;;;;17.68;100.00;98414.13;6099743;19;20466;-71
2024/04/06 08:01:46;;;;;;;1.65;1.40;;;;;;;17.86;100.00;98421.41;6098436;19;20014;-71
2024/04/06 08:03:47;;;;;;;3.97;1.70;;;;;;;17.88;100.00;98407.81;6100342;19;20112;-71
2024/04/06 08:05:53;;;;;;;2.28;1.48;;;;;;;17.88;100.00;98400.19;6099433;19;20038;-71
2024/04/06 08:07:53;;;;;;;3.28;1.73;;;;;;;17.96;100.00;98403.66;6098514;19;20006;-71
2024/04/06 08:09:58;;;;;;;3.53;1.45;;;;;;;18.00;100.00;98409.97;6097496;19;20026;-71
2024/04/06 08:11:59;;;;;;;4.35;1.60;;;;;;;18.12;100.00;98400.13;6100317;19;20012;-71
2024/04/06 08:13:59;;;;;;;2.22;1.45;;;;;;;18.22;100.00;98410.34;6099712;19;20006;-71
2024/04/06 08:15:59;;;;;;;4.38;1.40;;;;;;;18.30;100.00;98406.16;6100556;19;20024;-71
2024/04/06 08:18:00;;;;;;;4.25;1.67;;;;;;;18.40;100.00;98405.16;6106331;19;20034;-71
2024/04/06 08:20:00;;;;;;;2.88;1.55;;;;;;;18.51;100.00;98416.13;6106995;19;20014;-71
2024/04/06 08:22:02;;;;;;;7.88;2.00;;;;;;;18.53;100.00;98411.69;6106219;19;20006;-71
2024/04/06 08:24:02;;;;;;;2.63;1.42;;;;;;;18.58;100.00;98418.78;6105209;19;20062;-71
2024/04/06 08:26:03;;;;;;;2.13;1.55;;;;;;;18.59;100.00;98414.75;6106783;19;20214;-71
2024/04/06 08:28:04;;;;;;;4.43;1.90;;;;;;;18.60;100.00;98410.72;6106239;19;20360;-71
2024/04/06 08:30:06;;;;;;;3.28;1.75;;;;;;;18.75;100.00;98414.81;6106465;19;19999;-71
2024/04/06 08:32:06;;;;;;;2.35;1.30;;;;;;;18.94;100.00;98418.00;6106237;19;20380;-71
2024/04/06 08:34:07;;;;;;;2.13;1.52;;;;;;;19.03;100.00;98413.41;6106050;19;19994;-71
2024/04/06 08:36:08;;;;;;;2.17;1.50;;;;;;;19.11;100.00;98414.00;6105579;19;20010;-71
2024/04/06 08:38:09;;;;;;;4.55;1.48;;;;;;;19.14;100.00;98412.34;6104474;19;20032;-71
2024/04/06 08:40:10;;;;;;;4.85;1.50;;;;;;;19.16;100.00;98418.31;6107471;19;20002;-71
2024/04/06 08:42:17;;;;;;;2.13;1.37;;;;;;;19.29;100.00;98413.59;6106964;19;20026;-71
2024/04/06 08:44:27;;;;;;;2.67;1.30;;;;;;;19.31;100.00;98408.31;6107280;19;20006;-71
2024/04/06 08:46:28;;;;;;;3.63;1.77;;;;;;;19.30;100.00;98413.13;6106806;19;20010;-71
2024/04/06 08:48:31;;;;;;;3.35;1.85;;;;;;;19.38;100.00;98404.56;6104673;19;20082;-71
2024/04/06 08:50:31;;;;;;;4.47;1.40;;;;;;;19.41;100.00;98398.84;6106744;19;20011;-71
2024/04/06 08:52:34;;;;;;;2.63;1.42;;;;;;;19.47;100.00;98401.91;6104423;19;20730;-71
2024/04/06 08:54:35;;;;;;;4.28;1.45;;;;;;;19.62;100.00;98412.38;6107397;19;20003;-72
2024/04/06 08:56:36;;;;;;;3.78;1.50;;;;;;;19.74;100.00;98424.88;6103865;19;20006;-72
2024/04/06 08:58:36;;;;;;;4.88;1.77;;;;;;;19.71;100.00;98414.53;6103783;19;20649;-71
2024/04/06 09:00:38;;;;;;;4.97;1.58;;;;;;;19.75;100.00;98412.41;6102313;19;20424;-71
2024/04/06 09:02:40;;;;;;;2.33;1.60;;;;;;;19.79;100.00;98407.50;6106219;19;20003;-71
2024/04/06 09:04:41;;;;;;;2.90;1.35;;;;;;;19.85;100.00;98413.34;6106936;19;20026;-71
2024/04/06 09:06:43;;;;;;;3.70;1.60;;;;;;;19.86;100.00;98410.13;6109760;19;20015;-72
2024/04/06 09:08:44;;;;;;;5.10;1.60;;;;;;;19.86;100.00;98407.31;6107811;19;20042;-72
2024/04/06 09:10:46;;;;;;;3.10;1.20;;;;;;;19.82;100.00;98417.84;6111616;19;20010;-71
2024/04/06 09:12:47;;;;;;;2.72;1.40;;;;;;;19.89;99.61;98411.25;6111455;19;20014;-71
2024/04/06 09:14:49;;;;;;;4.97;2.00;;;;;;;19.85;100.00;98413.34;6111215;19;19999;-71
2024/04/06 09:16:53;;;;;;;3.03;1.50;;;;;;;19.92;100.00;98410.38;6110659;19;20007;-71
2024/04/06 09:18:54;;;;;;;2.20;1.52;;;;;;;19.92;100.00;98405.53;6111235;19;20002;-71
2024/04/06 09:20:54;;;;;;;3.13;1.23;;;;;;;19.99;100.00;98404.56;6110703;19;20065;-71